sensor_id;sensor_type;location;lat;lon;timestamp;P1;durP1;ratioP1;P2;durP2;ratioP2
17872;SDS011;36318;42.620;23.338;2022-10-16T00:01:04;19.17;;;12.17;;
17872;SDS011;36318;42.620;23.338;2022-10-16T00:03:33;19.10;;;12.30;;
17872;SDS011;36318;42.620;23.338;2022-10-16T00:06:00;16.87;;;11.80;;
17872;SDS011;36318;42.620;23.338;2022-10-16T00:08:28;22.37;;;11.17;;
17872;SDS011;36318;42.620;23.338;2022-10-16T00:10:59;14.50;;;10.27;;
17872;SDS011;36318;42.620;23.338;2022-10-16T00:13:28;17.07;;;10.50;;
17872;SDS011;36318;42.620;23.338;2022-10-16T00:15:55;14.07;;;11.43;;
17872;SDS011;36318;42.620;23.338;2022-10-16T00:18:23;16.90;;;11.83;;
17872;SDS011;36318;42.620;23.338;2022-10-16T00:20:51;18.43;;;12.80;;
17872;SDS011;36318;42.620;23.338;2022-10-16T00:23:18;18.90;;;13.33;;
17872;SDS011;36318;42.620;23.338;2022-10-16T00:25:45;19.37;;;13.60;;
17872;SDS011;36318;42.620;23.338;2022-10-16T00:28:21;15.43;;;12.43;;
17872;SDS011;36318;42.620;23.338;2022-10-16T00:30:48;18.07;;;11.50;;
17872;SDS011;36318;42.620;23.338;2022-10-16T00:33:14;16.47;;;12.00;;
17872;SDS011;36318;42.620;23.338;2022-10-16T00:35:41;16.47;;;13.07;;
17872;SDS011;36318;42.620;23.338;2022-10-16T00:38:10;13.33;;;10.67;;
17872;SDS011;36318;42.620;23.338;2022-10-16T00:40:36;18.17;;;10.70;;
17872;SDS011;36318;42.620;23.338;2022-10-16T00:43:07;11.50;;;8.70;;
17872;SDS011;36318;42.620;23.338;2022-10-16T00:45:38;9.70;;;7.73;;
17872;SDS011;36318;42.620;23.338;2022-10-16T00:48:06;9.73;;;7.97;;
17872;SDS011;36318;42.620;23.338;2022-10-16T00:50:39;10.53;;;7.77;;
17872;SDS011;36318;42.620;23.338;2022-10-16T00:53:09;8.70;;;7.23;;
17872;SDS011;36318;42.620;23.338;2022-10-16T00:55:37;10.83;;;6.80;;
17872;SDS011;36318;42.620;23.338;2022-10-16T00:58:04;8.73;;;7.73;;
17872;SDS011;36318;42.620;23.338;2022-10-16T01:00:31;12.70;;;8.50;;
17872;SDS011;36318;42.620;23.338;2022-10-16T01:02:59;11.37;;;7.33;;
17872;SDS011;36318;42.620;23.338;2022-10-16T01:05:28;13.10;;;7.20;;
17872;SDS011;36318;42.620;23.338;2022-10-16T01:08:02;10.00;;;7.47;;
17872;SDS011;36318;42.620;23.338;2022-10-16T01:10:37;8.60;;;7.40;;
17872;SDS011;36318;42.620;23.338;2022-10-16T01:13:07;9.00;;;7.40;;
17872;SDS011;36318;42.620;23.338;2022-10-16T01:15:37;9.83;;;8.83;;
17872;SDS011;36318;42.620;23.338;2022-10-16T01:18:10;10.07;;;8.97;;
17872;SDS011;36318;42.620;23.338;2022-10-16T01:20:42;10.70;;;8.53;;
17872;SDS011;36318;42.620;23.338;2022-10-16T01:23:16;10.70;;;9.60;;
17872;SDS011;36318;42.620;23.338;2022-10-16T01:25:59;11.03;;;9.53;;
17872;SDS011;36318;42.620;23.338;2022-10-16T01:28:41;12.10;;;9.37;;
17872;SDS011;36318;42.620;23.338;2022-10-16T01:31:14;10.03;;;9.00;;
17872;SDS011;36318;42.620;23.338;2022-10-16T01:33:46;17.97;;;9.57;;
17872;SDS011;36318;42.620;23.338;2022-10-16T01:36:19;8.27;;;6.67;;
17872;SDS011;36318;42.620;23.338;2022-10-16T01:38:52;10.03;;;8.50;;
17872;SDS011;36318;42.620;23.338;2022-10-16T01:41:24;12.70;;;8.13;;
17872;SDS011;36318;42.620;23.338;2022-10-16T01:43:59;10.30;;;7.97;;
17872;SDS011;36318;42.620;23.338;2022-10-16T01:46:31;8.10;;;7.30;;
17872;SDS011;36318;42.620;23.338;2022-10-16T01:49:00;9.40;;;7.10;;
17872;SDS011;36318;42.620;23.338;2022-10-16T01:51:28;8.43;;;6.67;;
17872;SDS011;36318;42.620;23.338;2022-10-16T01:53:56;16.93;;;13.33;;
17872;SDS011;36318;42.620;23.338;2022-10-16T01:56:26;8.77;;;7.80;;
17872;SDS011;36318;42.620;23.338;2022-10-16T01:58:56;7.00;;;5.30;;
17872;SDS011;36318;42.620;23.338;2022-10-16T02:01:29;6.20;;;5.60;;
17872;SDS011;36318;42.620;23.338;2022-10-16T02:04:01;6.70;;;5.40;;
17872;SDS011;36318;42.620;23.338;2022-10-16T02:06:33;8.07;;;6.10;;
17872;SDS011;36318;42.620;23.338;2022-10-16T02:09:01;9.00;;;7.43;;
17872;SDS011;36318;42.620;23.338;2022-10-16T02:11:28;11.27;;;8.13;;
17872;SDS011;36318;42.620;23.338;2022-10-16T02:13:55;8.90;;;7.10;;
17872;SDS011;36318;42.620;23.338;2022-10-16T02:16:32;8.80;;;7.40;;
17872;SDS011;36318;42.620;23.338;2022-10-16T02:19:00;7.90;;;6.33;;
17872;SDS011;36318;42.620;23.338;2022-10-16T02:21:28;7.03;;;6.33;;
17872;SDS011;36318;42.620;23.338;2022-10-16T02:24:01;9.10;;;7.17;;
17872;SDS011;36318;42.620;23.338;2022-10-16T02:26:35;9.60;;;7.30;;
17872;SDS011;36318;42.620;23.338;2022-10-16T02:29:10;7.30;;;6.27;;
17872;SDS011;36318;42.620;23.338;2022-10-16T02:31:42;7.90;;;7.10;;
17872;SDS011;36318;42.620;23.338;2022-10-16T02:34:13;11.40;;;7.67;;
17872;SDS011;36318;42.620;23.338;2022-10-16T02:36:42;9.13;;;6.43;;
17872;SDS011;36318;42.620;23.338;2022-10-16T02:39:12;7.73;;;6.63;;
17872;SDS011;36318;42.620;23.338;2022-10-16T02:41:40;7.97;;;6.73;;
17872;SDS011;36318;42.620;23.338;2022-10-16T02:44:08;7.90;;;7.10;;
17872;SDS011;36318;42.620;23.338;2022-10-16T02:46:35;9.73;;;7.70;;
17872;SDS011;36318;42.620;23.338;2022-10-16T02:49:02;8.97;;;8.07;;
17872;SDS011;36318;42.620;23.338;2022-10-16T02:51:29;12.63;;;8.30;;
17872;SDS011;36318;42.620;23.338;2022-10-16T02:53:56;11.53;;;8.80;;
17872;SDS011;36318;42.620;23.338;2022-10-16T02:56:23;12.07;;;9.70;;
17872;SDS011;36318;42.620;23.338;2022-10-16T02:58:49;9.60;;;8.17;;
17872;SDS011;36318;42.620;23.338;2022-10-16T03:01:17;13.97;;;9.90;;
17872;SDS011;36318;42.620;23.338;2022-10-16T03:03:44;12.77;;;9.53;;
17872;SDS011;36318;42.620;23.338;2022-10-16T03:06:11;10.27;;;9.17;;
17872;SDS011;36318;42.620;23.338;2022-10-16T03:08:38;12.93;;;9.83;;
17872;SDS011;36318;42.620;23.338;2022-10-16T03:11:04;14.77;;;11.10;;
17872;SDS011;36318;42.620;23.338;2022-10-16T03:13:31;14.93;;;10.97;;
17872;SDS011;36318;42.620;23.338;2022-10-16T03:15:58;20.13;;;14.13;;
17872;SDS011;36318;42.620;23.338;2022-10-16T03:18:27;14.40;;;12.83;;
17872;SDS011;36318;42.620;23.338;2022-10-16T03:20:54;19.40;;;14.53;;
17872;SDS011;36318;42.620;23.338;2022-10-16T03:23:20;18.27;;;14.80;;
17872;SDS011;36318;42.620;23.338;2022-10-16T03:25:47;18.83;;;15.77;;
17872;SDS011;36318;42.620;23.338;2022-10-16T03:28:14;22.33;;;16.17;;
17872;SDS011;36318;42.620;23.338;2022-10-16T03:30:41;19.50;;;16.37;;
17872;SDS011;36318;42.620;23.338;2022-10-16T03:33:09;21.07;;;16.43;;
17872;SDS011;36318;42.620;23.338;2022-10-16T03:35:37;18.13;;;15.97;;
17872;SDS011;36318;42.620;23.338;2022-10-16T03:38:04;19.00;;;15.77;;
17872;SDS011;36318;42.620;23.338;2022-10-16T03:40:30;22.83;;;16.30;;
17872;SDS011;36318;42.620;23.338;2022-10-16T03:42:57;26.53;;;19.53;;
17872;SDS011;36318;42.620;23.338;2022-10-16T03:45:24;23.30;;;18.50;;
17872;SDS011;36318;42.620;23.338;2022-10-16T03:47:52;23.87;;;18.67;;
17872;SDS011;36318;42.620;23.338;2022-10-16T03:50:18;24.63;;;16.57;;
17872;SDS011;36318;42.620;23.338;2022-10-16T03:52:47;27.23;;;15.90;;
17872;SDS011;36318;42.620;23.338;2022-10-16T03:55:13;17.90;;;16.00;;
17872;SDS011;36318;42.620;23.338;2022-10-16T03:57:40;18.87;;;15.40;;
17872;SDS011;36318;42.620;23.338;2022-10-16T04:00:07;20.47;;;16.60;;
17872;SDS011;36318;42.620;23.338;2022-10-16T04:02:35;21.33;;;17.77;;
17872;SDS011;36318;42.620;23.338;2022-10-16T04:05:02;24.33;;;18.33;;
17872;SDS011;36318;42.620;23.338;2022-10-16T04:07:29;21.23;;;17.77;;
17872;SDS011;36318;42.620;23.338;2022-10-16T04:09:57;21.77;;;18.17;;
17872;SDS011;36318;42.620;23.338;2022-10-16T04:12:24;27.17;;;18.73;;
17872;SDS011;36318;42.620;23.338;2022-10-16T04:14:51;21.07;;;18.00;;
17872;SDS011;36318;42.620;23.338;2022-10-16T04:17:18;20.20;;;18.00;;
17872;SDS011;36318;42.620;23.338;2022-10-16T04:19:45;25.57;;;17.70;;
17872;SDS011;36318;42.620;23.338;2022-10-16T04:22:12;20.43;;;14.93;;
17872;SDS011;36318;42.620;23.338;2022-10-16T04:24:38;16.57;;;14.57;;
17872;SDS011;36318;42.620;23.338;2022-10-16T04:27:07;24.27;;;16.20;;
17872;SDS011;36318;42.620;23.338;2022-10-16T04:29:34;17.27;;;14.67;;
17872;SDS011;36318;42.620;23.338;2022-10-16T04:32:00;16.60;;;14.10;;
17872;SDS011;36318;42.620;23.338;2022-10-16T04:34:27;16.77;;;13.60;;
17872;SDS011;36318;42.620;23.338;2022-10-16T04:36:54;15.50;;;13.30;;
17872;SDS011;36318;42.620;23.338;2022-10-16T04:39:21;16.17;;;13.20;;
17872;SDS011;36318;42.620;23.338;2022-10-16T04:41:48;18.17;;;12.17;;
17872;SDS011;36318;42.620;23.338;2022-10-16T04:44:16;14.50;;;11.73;;
17872;SDS011;36318;42.620;23.338;2022-10-16T04:46:42;14.23;;;12.47;;
17872;SDS011;36318;42.620;23.338;2022-10-16T04:49:10;13.40;;;12.00;;
17872;SDS011;36318;42.620;23.338;2022-10-16T04:51:36;18.03;;;12.67;;
17872;SDS011;36318;42.620;23.338;2022-10-16T04:54:03;15.50;;;13.43;;
17872;SDS011;36318;42.620;23.338;2022-10-16T04:56:30;19.20;;;14.00;;
17872;SDS011;36318;42.620;23.338;2022-10-16T04:58:57;16.03;;;13.23;;
17872;SDS011;36318;42.620;23.338;2022-10-16T05:01:25;15.13;;;12.83;;
17872;SDS011;36318;42.620;23.338;2022-10-16T05:03:51;16.53;;;13.67;;
17872;SDS011;36318;42.620;23.338;2022-10-16T05:06:18;18.17;;;14.27;;
17872;SDS011;36318;42.620;23.338;2022-10-16T05:08:45;18.40;;;13.23;;
17872;SDS011;36318;42.620;23.338;2022-10-16T05:11:12;16.63;;;13.60;;
17872;SDS011;36318;42.620;23.338;2022-10-16T05:13:38;18.80;;;16.50;;
17872;SDS011;36318;42.620;23.338;2022-10-16T05:16:05;20.57;;;16.10;;
17872;SDS011;36318;42.620;23.338;2022-10-16T05:18:34;19.00;;;16.30;;
17872;SDS011;36318;42.620;23.338;2022-10-16T05:21:00;23.73;;;16.80;;
17872;SDS011;36318;42.620;23.338;2022-10-16T05:23:27;20.80;;;16.33;;
17872;SDS011;36318;42.620;23.338;2022-10-16T05:25:54;24.27;;;15.53;;
17872;SDS011;36318;42.620;23.338;2022-10-16T05:28:23;17.43;;;15.07;;
17872;SDS011;36318;42.620;23.338;2022-10-16T05:30:50;20.73;;;15.13;;
17872;SDS011;36318;42.620;23.338;2022-10-16T05:33:19;18.27;;;14.87;;
17872;SDS011;36318;42.620;23.338;2022-10-16T05:35:47;18.40;;;14.93;;
17872;SDS011;36318;42.620;23.338;2022-10-16T05:38:14;24.03;;;16.97;;
17872;SDS011;36318;42.620;23.338;2022-10-16T05:40:41;18.87;;;16.87;;
17872;SDS011;36318;42.620;23.338;2022-10-16T05:43:08;20.13;;;17.23;;
17872;SDS011;36318;42.620;23.338;2022-10-16T05:45:35;16.93;;;14.80;;
17872;SDS011;36318;42.620;23.338;2022-10-16T05:48:02;17.17;;;13.60;;
17872;SDS011;36318;42.620;23.338;2022-10-16T05:50:29;14.93;;;12.57;;
17872;SDS011;36318;42.620;23.338;2022-10-16T05:52:57;13.57;;;11.10;;
17872;SDS011;36318;42.620;23.338;2022-10-16T05:55:24;11.97;;;10.37;;
17872;SDS011;36318;42.620;23.338;2022-10-16T05:57:53;10.80;;;9.40;;
17872;SDS011;36318;42.620;23.338;2022-10-16T06:00:20;11.00;;;9.47;;
17872;SDS011;36318;42.620;23.338;2022-10-16T06:02:47;10.83;;;9.17;;
17872;SDS011;36318;42.620;23.338;2022-10-16T06:05:14;11.57;;;8.10;;
17872;SDS011;36318;42.620;23.338;2022-10-16T06:07:43;10.80;;;9.23;;
17872;SDS011;36318;42.620;23.338;2022-10-16T06:10:11;11.33;;;8.90;;
17872;SDS011;36318;42.620;23.338;2022-10-16T06:12:38;13.97;;;8.97;;
17872;SDS011;36318;42.620;23.338;2022-10-16T06:15:05;12.47;;;8.90;;
17872;SDS011;36318;42.620;23.338;2022-10-16T06:17:32;13.10;;;8.83;;
17872;SDS011;36318;42.620;23.338;2022-10-16T06:19:58;10.63;;;8.93;;
17872;SDS011;36318;42.620;23.338;2022-10-16T06:22:26;9.87;;;8.07;;
17872;SDS011;36318;42.620;23.338;2022-10-16T06:24:52;9.67;;;7.53;;
17872;SDS011;36318;42.620;23.338;2022-10-16T06:27:20;10.90;;;8.43;;
17872;SDS011;36318;42.620;23.338;2022-10-16T06:29:47;14.10;;;8.77;;
17872;SDS011;36318;42.620;23.338;2022-10-16T06:32:14;12.13;;;9.00;;
17872;SDS011;36318;42.620;23.338;2022-10-16T06:34:41;9.67;;;8.60;;
17872;SDS011;36318;42.620;23.338;2022-10-16T06:37:07;10.07;;;7.80;;
17872;SDS011;36318;42.620;23.338;2022-10-16T06:39:34;10.77;;;8.60;;
17872;SDS011;36318;42.620;23.338;2022-10-16T06:42:01;18.20;;;9.23;;
17872;SDS011;36318;42.620;23.338;2022-10-16T06:44:29;10.37;;;7.53;;
17872;SDS011;36318;42.620;23.338;2022-10-16T06:46:56;11.53;;;7.93;;
17872;SDS011;36318;42.620;23.338;2022-10-16T06:49:22;8.13;;;7.13;;
17872;SDS011;36318;42.620;23.338;2022-10-16T06:51:49;10.53;;;7.47;;
17872;SDS011;36318;42.620;23.338;2022-10-16T06:54:16;10.70;;;7.93;;
17872;SDS011;36318;42.620;23.338;2022-10-16T06:56:43;9.57;;;7.27;;
17872;SDS011;36318;42.620;23.338;2022-10-16T06:59:11;9.20;;;6.63;;
17872;SDS011;36318;42.620;23.338;2022-10-16T07:01:39;9.93;;;6.77;;
17872;SDS011;36318;42.620;23.338;2022-10-16T07:04:05;6.57;;;5.97;;
17872;SDS011;36318;42.620;23.338;2022-10-16T07:06:33;6.17;;;5.33;;
17872;SDS011;36318;42.620;23.338;2022-10-16T07:09:01;5.53;;;4.90;;
17872;SDS011;36318;42.620;23.338;2022-10-16T07:11:30;8.80;;;4.70;;
17872;SDS011;36318;42.620;23.338;2022-10-16T07:13:57;10.17;;;4.60;;
17872;SDS011;36318;42.620;23.338;2022-10-16T07:16:24;6.10;;;4.33;;
17872;SDS011;36318;42.620;23.338;2022-10-16T07:18:54;5.47;;;4.37;;
17872;SDS011;36318;42.620;23.338;2022-10-16T07:21:24;4.37;;;3.97;;
17872;SDS011;36318;42.620;23.338;2022-10-16T07:23:54;5.50;;;4.63;;
17872;SDS011;36318;42.620;23.338;2022-10-16T07:26:22;6.93;;;4.80;;
17872;SDS011;36318;42.620;23.338;2022-10-16T07:28:49;6.67;;;4.83;;
17872;SDS011;36318;42.620;23.338;2022-10-16T07:31:18;4.80;;;4.30;;
17872;SDS011;36318;42.620;23.338;2022-10-16T07:33:46;5.00;;;4.20;;
17872;SDS011;36318;42.620;23.338;2022-10-16T07:36:15;4.97;;;4.00;;
17872;SDS011;36318;42.620;23.338;2022-10-16T07:38:43;5.27;;;4.43;;
17872;SDS011;36318;42.620;23.338;2022-10-16T07:41:11;7.83;;;4.50;;
17872;SDS011;36318;42.620;23.338;2022-10-16T07:43:39;6.40;;;4.73;;
17872;SDS011;36318;42.620;23.338;2022-10-16T07:46:06;4.70;;;4.00;;
17872;SDS011;36318;42.620;23.338;2022-10-16T07:48:34;5.27;;;4.73;;
17872;SDS011;36318;42.620;23.338;2022-10-16T07:51:01;6.65;;;4.43;;
17872;SDS011;36318;42.620;23.338;2022-10-16T07:53:31;5.38;;;4.47;;
17872;SDS011;36318;42.620;23.338;2022-10-16T07:55:59;6.27;;;4.63;;
17872;SDS011;36318;42.620;23.338;2022-10-16T07:58:27;5.70;;;4.73;;
17872;SDS011;36318;42.620;23.338;2022-10-16T08:00:54;6.55;;;5.38;;
17872;SDS011;36318;42.620;23.338;2022-10-16T08:03:21;10.23;;;4.93;;
17872;SDS011;36318;42.620;23.338;2022-10-16T08:05:48;8.88;;;4.53;;
17872;SDS011;36318;42.620;23.338;2022-10-16T08:08:15;6.47;;;4.38;;
17872;SDS011;36318;42.620;23.338;2022-10-16T08:10:44;5.30;;;4.43;;
17872;SDS011;36318;42.620;23.338;2022-10-16T08:13:11;7.00;;;5.13;;
17872;SDS011;36318;42.620;23.338;2022-10-16T08:15:40;8.70;;;5.50;;
17872;SDS011;36318;42.620;23.338;2022-10-16T08:18:06;5.82;;;4.65;;
17872;SDS011;36318;42.620;23.338;2022-10-16T08:20:33;8.60;;;4.90;;
17872;SDS011;36318;42.620;23.338;2022-10-16T08:23:00;9.25;;;5.30;;
17872;SDS011;36318;42.620;23.338;2022-10-16T08:25:27;8.82;;;5.03;;
17872;SDS011;36318;42.620;23.338;2022-10-16T08:27:55;5.82;;;5.13;;
17872;SDS011;36318;42.620;23.338;2022-10-16T08:30:23;8.32;;;5.70;;
17872;SDS011;36318;42.620;23.338;2022-10-16T08:32:50;8.23;;;5.43;;
17872;SDS011;36318;42.620;23.338;2022-10-16T08:35:17;8.68;;;5.28;;
17872;SDS011;36318;42.620;23.338;2022-10-16T08:37:44;9.60;;;5.38;;
17872;SDS011;36318;42.620;23.338;2022-10-16T08:40:14;7.10;;;5.20;;
17872;SDS011;36318;42.620;23.338;2022-10-16T08:42:53;6.63;;;4.68;;
17872;SDS011;36318;42.620;23.338;2022-10-16T08:45:36;5.13;;;3.78;;
17872;SDS011;36318;42.620;23.338;2022-10-16T08:48:16;3.65;;;3.17;;
17872;SDS011;36318;42.620;23.338;2022-10-16T08:50:49;5.32;;;3.88;;
17872;SDS011;36318;42.620;23.338;2022-10-16T08:53:19;6.00;;;3.92;;
17872;SDS011;36318;42.620;23.338;2022-10-16T08:55:51;5.85;;;4.18;;
17872;SDS011;36318;42.620;23.338;2022-10-16T08:58:20;5.32;;;3.50;;
17872;SDS011;36318;42.620;23.338;2022-10-16T09:00:48;6.13;;;3.65;;
17872;SDS011;36318;42.620;23.338;2022-10-16T09:03:24;7.65;;;3.80;;
17872;SDS011;36318;42.620;23.338;2022-10-16T09:06:07;5.07;;;3.42;;
17872;SDS011;36318;42.620;23.338;2022-10-16T09:08:42;8.00;;;4.03;;
17872;SDS011;36318;42.620;23.338;2022-10-16T09:11:20;4.15;;;3.45;;
17872;SDS011;36318;42.620;23.338;2022-10-16T09:13:59;5.88;;;3.35;;
17872;SDS011;36318;42.620;23.338;2022-10-16T09:16:34;4.00;;;3.60;;
17872;SDS011;36318;42.620;23.338;2022-10-16T09:19:09;6.07;;;3.70;;
17872;SDS011;36318;42.620;23.338;2022-10-16T09:21:44;5.63;;;3.20;;
17872;SDS011;36318;42.620;23.338;2022-10-16T09:24:13;6.83;;;3.20;;
17872;SDS011;36318;42.620;23.338;2022-10-16T09:26:41;4.03;;;3.33;;
17872;SDS011;36318;42.620;23.338;2022-10-16T09:29:10;4.23;;;3.43;;
17872;SDS011;36318;42.620;23.338;2022-10-16T09:31:39;4.77;;;3.70;;
17872;SDS011;36318;42.620;23.338;2022-10-16T09:34:08;3.87;;;3.10;;
17872;SDS011;36318;42.620;23.338;2022-10-16T09:36:47;4.10;;;3.40;;
17872;SDS011;36318;42.620;23.338;2022-10-16T09:39:14;3.53;;;3.10;;
17872;SDS011;36318;42.620;23.338;2022-10-16T09:41:41;8.70;;;3.30;;
17872;SDS011;36318;42.620;23.338;2022-10-16T09:44:18;5.63;;;3.73;;
17872;SDS011;36318;42.620;23.338;2022-10-16T09:46:49;3.97;;;3.57;;
17872;SDS011;36318;42.620;23.338;2022-10-16T09:49:26;5.17;;;3.50;;
17872;SDS011;36318;42.620;23.338;2022-10-16T09:52:02;5.03;;;3.70;;
17872;SDS011;36318;42.620;23.338;2022-10-16T09:54:30;3.73;;;3.00;;
17872;SDS011;36318;42.620;23.338;2022-10-16T09:57:03;3.73;;;3.37;;
17872;SDS011;36318;42.620;23.338;2022-10-16T09:59:33;8.80;;;3.50;;
17872;SDS011;36318;42.620;23.338;2022-10-16T10:02:01;4.67;;;3.20;;
17872;SDS011;36318;42.620;23.338;2022-10-16T10:04:37;13.30;;;3.80;;
17872;SDS011;36318;42.620;23.338;2022-10-16T10:07:06;4.67;;;3.43;;
17872;SDS011;36318;42.620;23.338;2022-10-16T10:09:44;5.80;;;3.30;;
17872;SDS011;36318;42.620;23.338;2022-10-16T10:12:19;4.07;;;3.40;;
17872;SDS011;36318;42.620;23.338;2022-10-16T10:14:49;5.73;;;3.83;;
17872;SDS011;36318;42.620;23.338;2022-10-16T10:17:18;6.07;;;4.07;;
17872;SDS011;36318;42.620;23.338;2022-10-16T10:19:51;4.70;;;3.17;;
17872;SDS011;36318;42.620;23.338;2022-10-16T10:22:27;4.13;;;3.17;;
17872;SDS011;36318;42.620;23.338;2022-10-16T10:25:00;5.63;;;3.80;;
17872;SDS011;36318;42.620;23.338;2022-10-16T10:27:44;7.73;;;3.67;;
17872;SDS011;36318;42.620;23.338;2022-10-16T10:30:22;3.83;;;3.40;;
17872;SDS011;36318;42.620;23.338;2022-10-16T10:32:57;3.97;;;3.57;;
17872;SDS011;36318;42.620;23.338;2022-10-16T10:35:40;3.80;;;3.10;;
17872;SDS011;36318;42.620;23.338;2022-10-16T10:38:16;5.10;;;3.50;;
17872;SDS011;36318;42.620;23.338;2022-10-16T10:40:55;4.73;;;3.50;;
17872;SDS011;36318;42.620;23.338;2022-10-16T10:43:41;5.93;;;3.23;;
17872;SDS011;36318;42.620;23.338;2022-10-16T10:46:19;4.17;;;3.03;;
17872;SDS011;36318;42.620;23.338;2022-10-16T10:48:59;6.23;;;3.13;;
17872;SDS011;36318;42.620;23.338;2022-10-16T10:51:39;3.23;;;2.70;;
17872;SDS011;36318;42.620;23.338;2022-10-16T10:54:13;9.10;;;2.83;;
17872;SDS011;36318;42.620;23.338;2022-10-16T10:56:47;3.60;;;3.30;;
17872;SDS011;36318;42.620;23.338;2022-10-16T10:59:28;4.20;;;3.80;;
17872;SDS011;36318;42.620;23.338;2022-10-16T11:02:09;7.00;;;3.30;;
17872;SDS011;36318;42.620;23.338;2022-10-16T11:04:50;3.57;;;3.17;;
17872;SDS011;36318;42.620;23.338;2022-10-16T11:07:34;5.10;;;3.00;;
17872;SDS011;36318;42.620;23.338;2022-10-16T11:10:09;4.93;;;2.60;;
17872;SDS011;36318;42.620;23.338;2022-10-16T11:12:42;2.90;;;2.70;;
17872;SDS011;36318;42.620;23.338;2022-10-16T11:15:13;4.13;;;2.93;;
17872;SDS011;36318;42.620;23.338;2022-10-16T11:17:44;4.53;;;3.00;;
17872;SDS011;36318;42.620;23.338;2022-10-16T11:20:19;5.57;;;3.10;;
17872;SDS011;36318;42.620;23.338;2022-10-16T11:22:50;3.70;;;3.10;;
17872;SDS011;36318;42.620;23.338;2022-10-16T11:25:22;3.80;;;3.20;;
17872;SDS011;36318;42.620;23.338;2022-10-16T11:27:54;3.90;;;2.60;;
17872;SDS011;36318;42.620;23.338;2022-10-16T11:30:26;4.13;;;3.27;;
17872;SDS011;36318;42.620;23.338;2022-10-16T11:33:02;4.10;;;3.13;;
17872;SDS011;36318;42.620;23.338;2022-10-16T11:35:41;5.43;;;3.00;;
17872;SDS011;36318;42.620;23.338;2022-10-16T11:38:14;4.20;;;2.97;;
17872;SDS011;36318;42.620;23.338;2022-10-16T11:40:47;4.63;;;2.60;;
17872;SDS011;36318;42.620;23.338;2022-10-16T11:43:21;4.47;;;2.60;;
17872;SDS011;36318;42.620;23.338;2022-10-16T11:45:51;3.30;;;2.90;;
17872;SDS011;36318;42.620;23.338;2022-10-16T11:48:24;4.80;;;3.13;;
17872;SDS011;36318;42.620;23.338;2022-10-16T11:50:59;3.00;;;2.70;;
17872;SDS011;36318;42.620;23.338;2022-10-16T11:53:39;4.60;;;2.60;;
17872;SDS011;36318;42.620;23.338;2022-10-16T11:56:12;2.50;;;2.30;;
17872;SDS011;36318;42.620;23.338;2022-10-16T11:58:44;4.63;;;2.37;;
17872;SDS011;36318;42.620;23.338;2022-10-16T12:01:22;3.13;;;1.77;;
17872;SDS011;36318;42.620;23.338;2022-10-16T12:04:00;2.47;;;1.80;;
17872;SDS011;36318;42.620;23.338;2022-10-16T12:06:33;3.13;;;2.30;;
17872;SDS011;36318;42.620;23.338;2022-10-16T12:09:09;2.43;;;1.80;;
17872;SDS011;36318;42.620;23.338;2022-10-16T12:11:42;2.63;;;1.80;;
17872;SDS011;36318;42.620;23.338;2022-10-16T12:14:32;1.83;;;1.70;;
17872;SDS011;36318;42.620;23.338;2022-10-16T12:17:02;2.77;;;1.80;;
17872;SDS011;36318;42.620;23.338;2022-10-16T12:19:33;1.63;;;1.53;;
17872;SDS011;36318;42.620;23.338;2022-10-16T12:22:00;1.97;;;1.50;;
17872;SDS011;36318;42.620;23.338;2022-10-16T12:24:35;3.73;;;1.90;;
17872;SDS011;36318;42.620;23.338;2022-10-16T12:27:04;2.53;;;2.10;;
17872;SDS011;36318;42.620;23.338;2022-10-16T12:29:33;2.87;;;2.03;;
17872;SDS011;36318;42.620;23.338;2022-10-16T12:32:04;2.20;;;2.00;;
17872;SDS011;36318;42.620;23.338;2022-10-16T12:34:45;2.20;;;2.00;;
17872;SDS011;36318;42.620;23.338;2022-10-16T12:37:14;7.37;;;2.60;;
17872;SDS011;36318;42.620;23.338;2022-10-16T12:39:48;4.27;;;2.60;;
17872;SDS011;36318;42.620;23.338;2022-10-16T12:42:23;2.30;;;2.00;;
17872;SDS011;36318;42.620;23.338;2022-10-16T12:44:59;2.40;;;2.00;;
17872;SDS011;36318;42.620;23.338;2022-10-16T12:47:37;4.83;;;2.40;;
17872;SDS011;36318;42.620;23.338;2022-10-16T12:50:26;3.37;;;2.13;;
17872;SDS011;36318;42.620;23.338;2022-10-16T12:52:55;3.50;;;1.80;;
17872;SDS011;36318;42.620;23.338;2022-10-16T12:55:22;5.97;;;2.10;;
17872;SDS011;36318;42.620;23.338;2022-10-16T12:57:59;3.10;;;2.10;;
17872;SDS011;36318;42.620;23.338;2022-10-16T13:00:33;4.13;;;2.10;;
17872;SDS011;36318;42.620;23.338;2022-10-16T13:06:35;4.07;;;2.30;;
17872;SDS011;36318;42.620;23.338;2022-10-16T13:09:12;2.30;;;2.10;;
17872;SDS011;36318;42.620;23.338;2022-10-16T13:11:58;2.50;;;2.00;;
17872;SDS011;36318;42.620;23.338;2022-10-16T13:14:39;5.63;;;2.50;;
17872;SDS011;36318;42.620;23.338;2022-10-16T13:17:22;3.47;;;2.10;;
17872;SDS011;36318;42.620;23.338;2022-10-16T13:19:59;4.77;;;2.20;;
17872;SDS011;36318;42.620;23.338;2022-10-16T13:22:38;3.70;;;2.43;;
17872;SDS011;36318;42.620;23.338;2022-10-16T13:25:17;5.13;;;2.30;;
17872;SDS011;36318;42.620;23.338;2022-10-16T13:27:55;2.37;;;1.80;;
17872;SDS011;36318;42.620;23.338;2022-10-16T13:30:26;4.43;;;2.40;;
17872;SDS011;36318;42.620;23.338;2022-10-16T13:32:58;4.00;;;2.23;;
17872;SDS011;36318;42.620;23.338;2022-10-16T13:35:27;9.30;;;2.97;;
17872;SDS011;36318;42.620;23.338;2022-10-16T13:38:09;5.27;;;2.67;;
17872;SDS011;36318;42.620;23.338;2022-10-16T13:40:48;2.83;;;2.27;;
17872;SDS011;36318;42.620;23.338;2022-10-16T13:43:19;3.27;;;2.30;;
17872;SDS011;36318;42.620;23.338;2022-10-16T13:45:58;3.53;;;2.23;;
17872;SDS011;36318;42.620;23.338;2022-10-16T13:48:28;6.47;;;2.75;;
17872;SDS011;36318;42.620;23.338;2022-10-16T13:51:00;9.55;;;2.72;;
17872;SDS011;36318;42.620;23.338;2022-10-16T13:53:31;3.58;;;2.63;;
17872;SDS011;36318;42.620;23.338;2022-10-16T13:55:58;3.47;;;2.78;;
17872;SDS011;36318;42.620;23.338;2022-10-16T13:58:26;3.25;;;2.60;;
17872;SDS011;36318;42.620;23.338;2022-10-16T14:00:56;4.13;;;2.47;;
17872;SDS011;36318;42.620;23.338;2022-10-16T14:03:27;5.45;;;2.33;;
17872;SDS011;36318;42.620;23.338;2022-10-16T14:05:56;2.75;;;2.10;;
17872;SDS011;36318;42.620;23.338;2022-10-16T14:08:25;3.80;;;2.40;;
17872;SDS011;36318;42.620;23.338;2022-10-16T14:10:56;5.47;;;2.30;;
17872;SDS011;36318;42.620;23.338;2022-10-16T14:13:27;3.92;;;3.53;;
17872;SDS011;36318;42.620;23.338;2022-10-16T14:15:57;2.83;;;2.55;;
17872;SDS011;36318;42.620;23.338;2022-10-16T14:18:29;5.35;;;2.90;;
17872;SDS011;36318;42.620;23.338;2022-10-16T14:21:02;2.80;;;2.58;;
17872;SDS011;36318;42.620;23.338;2022-10-16T14:23:30;4.35;;;2.70;;
17872;SDS011;36318;42.620;23.338;2022-10-16T14:26:13;3.60;;;2.85;;
17872;SDS011;36318;42.620;23.338;2022-10-16T14:28:43;4.88;;;2.63;;
17872;SDS011;36318;42.620;23.338;2022-10-16T14:33:56;2.92;;;2.58;;
17872;SDS011;36318;42.620;23.338;2022-10-16T14:36:24;3.78;;;2.45;;
17872;SDS011;36318;42.620;23.338;2022-10-16T14:39:01;3.58;;;2.10;;
17872;SDS011;36318;42.620;23.338;2022-10-16T14:41:32;5.83;;;2.73;;
17872;SDS011;36318;42.620;23.338;2022-10-16T14:44:09;3.50;;;2.50;;
17872;SDS011;36318;42.620;23.338;2022-10-16T14:46:38;3.13;;;2.20;;
17872;SDS011;36318;42.620;23.338;2022-10-16T14:49:13;5.60;;;2.63;;
17872;SDS011;36318;42.620;23.338;2022-10-16T14:51:42;4.47;;;2.80;;